createdAt,value
2022-08-17T00:01:52.031Z,5.32
2022-08-17T00:04:24.184Z,5.47
2022-08-17T00:06:54.188Z,5.43
2022-08-17T00:09:24.225Z,5.50
2022-08-17T00:12:34.686Z,5.30
2022-08-17T00:14:45.812Z,5.05
2022-08-17T00:17:15.955Z,5.10
2022-08-17T00:19:46.045Z,4.63
2022-08-17T00:22:35.150Z,4.65
2022-08-17T00:25:09.219Z,5.10
2022-08-17T00:27:40.767Z,5.47
2022-08-17T00:30:14.743Z,5.30
2022-08-17T00:33:12.681Z,4.75
2022-08-17T00:35:38.587Z,4.93
2022-08-17T00:38:10.231Z,4.97
2022-08-17T00:40:44.951Z,5.28
2022-08-17T00:43:23.863Z,6.03
2022-08-17T00:45:54.064Z,5.20
2022-08-17T00:48:30.456Z,5.32
2022-08-17T00:52:47.053Z,5.25
2022-08-17T00:55:17.662Z,4.65
2022-08-17T00:57:55.037Z,4.82
2022-08-17T01:00:29.028Z,5.03
2022-08-17T01:03:06.702Z,4.93
2022-08-17T01:05:42.237Z,4.05
2022-08-17T01:08:17.331Z,4.70
2022-08-17T01:10:59.456Z,5.03
2022-08-17T01:13:39.731Z,4.40
2022-08-17T01:16:20.175Z,5.28
2022-08-17T01:18:54.022Z,4.78
2022-08-17T01:21:34.357Z,5.05
2022-08-17T01:24:06.945Z,5.07
2022-08-17T01:26:38.305Z,4.75
2022-08-17T01:29:09.227Z,5.65
2022-08-17T01:31:43.483Z,4.95
2022-08-17T01:34:16.724Z,5.20
2022-08-17T01:36:50.159Z,5.38
2022-08-17T01:39:28.903Z,5.28
2022-08-17T01:42:08.884Z,5.53
2022-08-17T01:44:40.887Z,4.80
2022-08-17T01:47:11.153Z,4.63
2022-08-17T01:49:41.222Z,5.35
2022-08-17T01:52:13.706Z,4.60
2022-08-17T01:54:49.683Z,4.40
2022-08-17T01:57:20.042Z,5.03
2022-08-17T01:59:50.256Z,5.15
2022-08-17T02:02:30.989Z,5.43
2022-08-17T02:05:02.386Z,4.88
2022-08-17T02:07:32.388Z,4.72
2022-08-17T02:10:24.435Z,4.93
2022-08-17T02:13:05.664Z,4.80
2022-08-17T02:15:36.326Z,5.80
2022-08-17T02:18:08.217Z,4.88
2022-08-17T02:20:42.502Z,5.22
2022-08-17T02:23:14.457Z,4.95
2022-08-17T02:25:49.461Z,4.60
2022-08-17T02:28:20.522Z,4.95
2022-08-17T02:31:01.844Z,4.80
2022-08-17T02:33:41.709Z,4.60
2022-08-17T02:36:14.962Z,4.35
2022-08-17T02:41:17.013Z,4.47
2022-08-17T02:43:47.149Z,8.70
2022-08-17T02:46:17.145Z,9.63
2022-08-17T02:48:47.142Z,10.05
2022-08-17T02:51:17.539Z,7.50
2022-08-17T02:53:48.286Z,7.55
2022-08-17T02:56:19.985Z,6.38
2022-08-17T02:58:50.141Z,5.43
2022-08-17T03:01:20.711Z,5.57
2022-08-17T03:03:50.706Z,5.40
2022-08-17T03:06:20.822Z,6.55
2022-08-17T03:08:50.973Z,6.47
2022-08-17T03:11:22.688Z,5.88
2022-08-17T03:13:52.786Z,5.53
2022-08-17T03:16:23.646Z,5.22
2022-08-17T03:18:55.162Z,5.47
2022-08-17T03:21:25.206Z,4.83
2022-08-17T03:23:55.489Z,5.22
2022-08-17T03:26:29.801Z,4.80
2022-08-17T03:28:59.962Z,4.38
2022-08-17T03:31:29.993Z,4.68
2022-08-17T03:34:01.445Z,4.55
2022-08-17T03:36:31.503Z,5.68
2022-08-17T03:39:06.902Z,4.70
2022-08-17T03:41:39.484Z,4.65
2022-08-17T03:44:09.462Z,5.43
2022-08-17T03:46:56.581Z,4.70
2022-08-17T03:49:43.401Z,5.22
2022-08-17T03:54:12.728Z,5.15
2022-08-17T03:56:46.026Z,4.60
2022-08-17T03:59:22.397Z,4.88
2022-08-17T04:01:55.637Z,4.45
2022-08-17T04:04:27.599Z,5.00
2022-08-17T04:06:59.147Z,4.60
2022-08-17T04:09:30.725Z,4.93
2022-08-17T04:12:01.298Z,4.83
2022-08-17T04:14:52.243Z,5.10
2022-08-17T04:17:27.374Z,4.53
2022-08-17T04:19:58.421Z,4.97
2022-08-17T04:22:32.205Z,4.90
2022-08-17T04:25:09.395Z,5.28
2022-08-17T04:27:39.595Z,4.95
2022-08-17T04:30:11.806Z,5.32
2022-08-17T04:33:06.230Z,5.05
2022-08-17T04:35:42.227Z,4.65
2022-08-17T04:38:15.703Z,5.15
2022-08-17T04:41:05.163Z,5.07
2022-08-17T04:43:37.450Z,5.55
2022-08-17T04:46:10.692Z,4.93
2022-08-17T04:48:43.406Z,5.22
2022-08-17T04:51:17.683Z,5.18
2022-08-17T04:53:54.354Z,4.60
2022-08-17T04:56:28.983Z,5.22
2022-08-17T04:59:03.343Z,5.10
2022-08-17T05:01:37.002Z,5.47
2022-08-17T05:04:32.796Z,5.05
2022-08-17T05:07:00.965Z,5.22
2022-08-17T05:09:31.383Z,5.22
2022-08-17T05:12:06.453Z,5.30
2022-08-17T05:14:36.607Z,5.15
2022-08-17T05:17:11.145Z,4.85
2022-08-17T05:19:42.106Z,5.38
2022-08-17T05:22:12.023Z,5.30
2022-08-17T05:24:53.341Z,5.75
2022-08-17T05:27:25.449Z,5.07
2022-08-17T05:30:02.963Z,5.78
2022-08-17T05:32:38.257Z,5.53
2022-08-17T05:35:11.414Z,5.25
2022-08-17T05:37:41.446Z,5.45
2022-08-17T05:40:12.845Z,4.78
2022-08-17T05:42:44.782Z,5.00
2022-08-17T05:45:16.113Z,4.82
2022-08-17T05:47:58.241Z,5.30
2022-08-17T05:50:36.053Z,6.82
2022-08-17T05:53:15.043Z,5.38
2022-08-17T05:56:00.403Z,4.85
2022-08-17T05:58:49.255Z,4.60
2022-08-17T06:01:32.444Z,4.10
2022-08-17T06:04:17.730Z,4.05
2022-08-17T06:06:57.127Z,4.00
2022-08-17T06:09:41.758Z,4.40
2022-08-17T06:12:36.286Z,4.60
2022-08-17T06:15:25.406Z,4.28
2022-08-17T06:17:59.543Z,4.07
2022-08-17T06:20:37.847Z,4.65
2022-08-17T06:23:13.066Z,4.50
2022-08-17T06:25:51.907Z,4.78
2022-08-17T06:28:32.447Z,4.43
2022-08-17T06:31:10.767Z,3.75
2022-08-17T06:33:46.723Z,4.18
2022-08-17T06:36:37.287Z,4.38
2022-08-17T06:39:29.160Z,5.00
2022-08-17T06:43:02.358Z,4.07
2022-08-17T06:45:14.083Z,3.70
2022-08-17T06:47:55.227Z,4.18
2022-08-17T06:53:46.769Z,3.05
2022-08-17T06:56:27.307Z,3.90
2022-08-17T06:59:23.634Z,3.78
2022-08-17T07:01:56.827Z,3.58
2022-08-17T07:04:33.082Z,3.65
2022-08-17T07:07:22.927Z,3.35
2022-08-17T07:09:58.287Z,3.22
2022-08-17T07:12:34.483Z,3.42
2022-08-17T07:15:15.226Z,3.30
2022-08-17T07:17:48.455Z,3.63
2022-08-17T07:20:23.002Z,3.10
2022-08-17T07:23:01.025Z,3.80
2022-08-17T07:25:33.466Z,3.45
2022-08-17T07:28:08.169Z,3.65
2022-08-17T07:30:47.147Z,3.45
2022-08-17T07:33:24.444Z,3.42
2022-08-17T07:35:55.108Z,3.33
2022-08-17T07:38:28.656Z,3.75
2022-08-17T07:41:11.131Z,3.63
2022-08-17T07:43:52.674Z,3.75
2022-08-17T07:46:42.215Z,3.13
2022-08-17T07:49:38.544Z,3.35
2022-08-17T07:52:48.574Z,3.10
2022-08-17T07:55:03.386Z,3.55
2022-08-17T07:57:37.707Z,3.70
2022-08-17T08:00:31.848Z,3.80
2022-08-17T08:03:19.347Z,3.58
2022-08-17T08:05:56.702Z,3.80
2022-08-17T08:08:40.065Z,3.67
2022-08-17T08:11:15.796Z,3.47
2022-08-17T08:13:50.351Z,3.45
2022-08-17T08:16:29.894Z,3.30
2022-08-17T08:19:02.541Z,3.35
2022-08-17T08:21:46.823Z,3.55
2022-08-17T08:24:41.638Z,3.17
2022-08-17T08:27:34.725Z,3.50
2022-08-17T08:30:12.128Z,3.40
2022-08-17T08:33:24.274Z,3.22
2022-08-17T08:36:03.066Z,3.92
2022-08-17T08:38:50.985Z,3.47
2022-08-17T08:41:45.285Z,3.60
2022-08-17T08:45:01.340Z,3.50
2022-08-17T08:47:43.047Z,3.53
2022-08-17T08:50:37.666Z,3.58
2022-08-17T08:53:31.368Z,2.88
2022-08-17T08:56:06.696Z,3.05
2022-08-17T08:58:51.231Z,3.25
2022-08-17T09:01:30.050Z,4.43
2022-08-17T09:04:25.990Z,2.70
2022-08-17T09:07:09.696Z,3.90
2022-08-17T09:09:59.155Z,3.28
2022-08-17T09:12:42.561Z,2.63
2022-08-17T09:15:20.346Z,2.75
2022-08-17T09:18:36.456Z,2.88
2022-08-17T09:20:59.906Z,2.95
2022-08-17T09:23:36.707Z,2.63
2022-08-17T09:26:22.437Z,3.13
2022-08-17T09:29:01.758Z,3.10
2022-08-17T09:31:46.451Z,2.72
2022-08-17T09:34:33.103Z,2.42
2022-08-17T09:37:22.083Z,2.80
2022-08-17T09:40:08.241Z,2.65
2022-08-17T09:42:48.961Z,2.80
2022-08-17T09:45:34.047Z,13.15
2022-08-17T09:48:10.427Z,2.63
2022-08-17T09:53:44.561Z,3.20
2022-08-17T09:56:34.983Z,2.78
2022-08-17T09:59:45.193Z,2.97
2022-08-17T10:02:58.317Z,2.67
2022-08-17T10:05:37.986Z,2.70
2022-08-17T10:08:21.842Z,3.30
2022-08-17T10:11:18.844Z,2.97
2022-08-17T10:13:59.700Z,3.05
2022-08-17T10:16:40.271Z,3.15
2022-08-17T10:19:20.425Z,3.58
2022-08-17T10:22:32.759Z,3.13
2022-08-17T10:25:30.188Z,3.35
2022-08-17T10:28:22.825Z,3.38
2022-08-17T10:34:07.619Z,3.05
2022-08-17T10:36:49.497Z,2.60
2022-08-17T10:42:05.471Z,2.45
2022-08-17T10:44:52.606Z,3.20
2022-08-17T10:47:24.401Z,3.97
2022-08-17T10:49:56.383Z,3.25
2022-08-17T10:52:51.426Z,3.50
2022-08-17T10:55:22.726Z,3.10
2022-08-17T10:57:55.227Z,2.90
2022-08-17T11:01:04.355Z,3.22
2022-08-17T11:03:34.614Z,2.50
2022-08-17T11:06:19.323Z,2.55
2022-08-17T11:09:27.967Z,2.88
2022-08-17T11:12:26.047Z,3.30
2022-08-17T11:15:13.269Z,3.00
2022-08-17T11:18:23.826Z,2.97
2022-08-17T11:21:38.043Z,2.60
2022-08-17T11:24:24.545Z,2.78
2022-08-17T11:27:14.225Z,2.88
2022-08-17T11:30:00.837Z,3.30
2022-08-17T11:32:47.450Z,2.92
2022-08-17T11:35:41.011Z,2.80
2022-08-17T11:38:27.228Z,4.72
2022-08-17T11:41:16.710Z,3.47
2022-08-17T11:44:12.822Z,4.30
2022-08-17T11:47:18.444Z,4.43
2022-08-17T11:50:37.702Z,4.47
2022-08-17T11:53:10.165Z,3.83
2022-08-17T11:56:08.386Z,4.65
2022-08-17T11:58:42.608Z,4.70
2022-08-17T12:01:16.177Z,5.20
2022-08-17T12:03:55.963Z,4.28
2022-08-17T12:06:47.826Z,4.25
2022-08-17T12:09:25.294Z,3.63
2022-08-17T12:12:12.656Z,3.28
2022-08-17T12:15:10.102Z,3.53
2022-08-17T12:17:42.881Z,4.03
2022-08-17T12:20:21.926Z,3.65
2022-08-17T12:23:01.509Z,3.50
2022-08-17T12:25:42.585Z,3.53
2022-08-17T12:28:25.623Z,4.05
2022-08-17T12:30:56.566Z,4.10
2022-08-17T12:33:29.163Z,4.30
2022-08-17T12:36:04.544Z,4.10
2022-08-17T12:38:37.084Z,4.55
2022-08-17T12:41:29.905Z,4.60
2022-08-17T12:44:03.324Z,3.75
2022-08-17T12:46:38.320Z,3.70
2022-08-17T12:49:24.314Z,3.55
2022-08-17T12:53:42.870Z,3.53
2022-08-17T12:56:16.205Z,3.40
2022-08-17T12:58:53.821Z,3.28
2022-08-17T13:01:25.415Z,3.67
2022-08-17T13:04:01.370Z,3.80
2022-08-17T13:06:35.413Z,2.80
2022-08-17T13:09:16.744Z,3.28
2022-08-17T13:14:22.645Z,3.13
2022-08-17T13:16:58.581Z,2.80
2022-08-17T13:19:40.424Z,2.90
2022-08-17T13:22:15.204Z,3.38
2022-08-17T13:24:56.726Z,3.60
2022-08-17T13:27:29.756Z,4.00
2022-08-17T13:30:02.507Z,3.72
2022-08-17T13:32:43.884Z,4.25
2022-08-17T13:35:50.089Z,4.13
2022-08-17T13:38:41.446Z,3.85
2022-08-17T13:41:35.004Z,4.32
2022-08-17T13:44:15.372Z,3.80
2022-08-17T13:46:57.163Z,4.32
2022-08-17T13:49:41.968Z,3.40
2022-08-17T13:52:39.786Z,3.90
2022-08-17T13:55:19.883Z,3.78
2022-08-17T13:58:03.967Z,3.53
2022-08-17T14:00:39.686Z,3.75
2022-08-17T14:03:09.723Z,3.72
2022-08-17T14:05:42.162Z,3.35
2022-08-17T14:08:15.062Z,3.53
2022-08-17T14:10:45.403Z,3.35
2022-08-17T14:13:16.992Z,3.00
2022-08-17T14:15:54.562Z,3.60
2022-08-17T14:18:35.627Z,3.58
2022-08-17T14:21:17.787Z,3.47
2022-08-17T14:23:49.016Z,3.63
2022-08-17T14:26:25.037Z,3.78
2022-08-17T14:28:57.119Z,3.17
2022-08-17T14:31:28.381Z,3.38
2022-08-17T14:33:59.383Z,3.35
2022-08-17T14:36:29.522Z,3.40
2022-08-17T14:38:59.744Z,3.40
2022-08-17T14:41:29.725Z,3.60
2022-08-17T14:44:01.434Z,3.53
2022-08-17T14:46:31.627Z,3.33
2022-08-17T14:49:03.204Z,3.50
2022-08-17T14:51:33.283Z,3.72
2022-08-17T14:54:03.411Z,3.30
2022-08-17T14:56:37.873Z,3.35
2022-08-17T14:59:09.927Z,3.53
2022-08-17T15:01:40.197Z,3.65
2022-08-17T15:04:18.628Z,3.50
2022-08-17T15:06:49.386Z,3.78
2022-08-17T15:09:19.962Z,3.30
2022-08-17T15:11:50.110Z,3.30
2022-08-17T15:14:23.026Z,3.20
2022-08-17T15:16:53.093Z,3.40
2022-08-17T15:19:23.243Z,3.83
2022-08-17T15:21:53.322Z,3.50
2022-08-17T15:24:23.526Z,3.67
2022-08-17T15:26:53.423Z,3.72
2022-08-17T15:29:25.207Z,3.47
2022-08-17T15:34:30.754Z,3.60
2022-08-17T15:37:00.845Z,3.00
2022-08-17T15:39:31.120Z,3.22
2022-08-17T15:42:05.726Z,3.15
2022-08-17T15:44:43.714Z,2.72
2022-08-17T15:47:17.373Z,2.70
2022-08-17T15:49:48.621Z,2.58
2022-08-17T15:53:41.084Z,2.33
2022-08-17T15:56:15.703Z,2.55
2022-08-17T15:58:48.323Z,2.40
2022-08-17T16:02:16.308Z,2.80
2022-08-17T16:04:29.969Z,2.80
2022-08-17T16:07:02.014Z,3.10
2022-08-17T16:09:33.624Z,2.80
2022-08-17T16:12:13.324Z,3.05
2022-08-17T16:14:43.366Z,3.10
2022-08-17T16:17:38.579Z,3.20
2022-08-17T16:20:03.712Z,3.15
2022-08-17T16:22:37.986Z,2.45
2022-08-17T16:25:15.423Z,2.72
2022-08-17T16:27:46.332Z,2.08
2022-08-17T16:30:18.100Z,2.42
2022-08-17T16:32:51.945Z,2.38
2022-08-17T16:35:25.606Z,1.90
2022-08-17T16:37:57.526Z,2.03
2022-08-17T16:40:35.798Z,1.80
2022-08-17T16:43:12.346Z,4.65
2022-08-17T16:45:42.843Z,2.15
2022-08-17T16:48:12.882Z,3.78
2022-08-17T16:50:43.747Z,3.00
2022-08-17T16:53:34.267Z,2.55
2022-08-17T16:56:07.827Z,3.58
2022-08-17T16:58:41.268Z,2.25
2022-08-17T17:01:12.055Z,3.53
2022-08-17T17:03:46.592Z,2.97
2022-08-17T17:06:26.666Z,2.75
2022-08-17T17:09:02.886Z,2.90
2022-08-17T17:11:40.107Z,2.80
2022-08-17T17:14:16.606Z,3.00
2022-08-17T17:16:58.169Z,2.88
2022-08-17T17:19:36.402Z,2.72
2022-08-17T17:22:16.980Z,2.63
2022-08-17T17:25:00.603Z,3.20
2022-08-17T17:27:44.421Z,2.58
2022-08-17T17:30:31.985Z,2.80
2022-08-17T17:33:07.211Z,2.60
2022-08-17T17:35:50.147Z,2.53
2022-08-17T17:38:28.956Z,2.63
2022-08-17T17:41:06.104Z,3.30
2022-08-17T17:43:40.182Z,2.97
2022-08-17T17:46:27.742Z,3.15
2022-08-17T17:48:59.882Z,2.80
2022-08-17T17:52:06.590Z,3.00
2022-08-17T17:54:58.982Z,2.95
2022-08-17T17:57:47.182Z,6.43
2022-08-17T18:00:27.364Z,7.30
2022-08-17T18:03:15.515Z,5.32
2022-08-17T18:06:10.430Z,4.00
2022-08-17T18:08:58.535Z,3.40
2022-08-17T18:11:53.443Z,2.70
2022-08-17T18:14:48.268Z,2.92
2022-08-17T18:17:20.709Z,3.13
2022-08-17T18:19:50.931Z,3.13
2022-08-17T18:22:23.668Z,3.33
2022-08-17T18:24:57.708Z,3.20
2022-08-17T18:27:35.499Z,3.28
2022-08-17T18:30:29.267Z,2.83
2022-08-17T18:33:23.585Z,3.30
2022-08-17T18:35:58.710Z,3.05
2022-08-17T18:38:34.571Z,2.78
2022-08-17T18:41:19.271Z,3.05
2022-08-17T18:44:04.521Z,2.85
2022-08-17T18:46:37.969Z,2.70
2022-08-17T18:49:28.303Z,3.03
2022-08-17T18:53:42.542Z,3.33
2022-08-17T18:56:31.259Z,2.60
2022-08-17T18:59:34.002Z,2.40
2022-08-17T19:02:44.268Z,2.78
2022-08-17T19:05:29.532Z,2.40
2022-08-17T19:08:23.788Z,2.13
2022-08-17T19:10:59.646Z,2.40
2022-08-17T19:13:36.644Z,2.35
2022-08-17T19:16:14.764Z,2.75
2022-08-17T19:18:51.245Z,2.50
2022-08-17T19:21:25.964Z,2.47
2022-08-17T19:24:02.633Z,2.20
2022-08-17T19:26:51.068Z,2.45
2022-08-17T19:29:34.323Z,2.78
2022-08-17T19:32:05.383Z,2.60
2022-08-17T19:34:39.209Z,2.47
2022-08-17T19:37:18.710Z,3.03
2022-08-17T19:40:00.632Z,2.95
2022-08-17T19:42:47.954Z,2.88
2022-08-17T19:45:36.575Z,2.92
2022-08-17T19:48:20.762Z,2.63
2022-08-17T19:50:58.611Z,2.28
2022-08-17T19:54:03.812Z,2.42
2022-08-17T19:56:40.324Z,3.03
2022-08-17T19:59:21.628Z,2.33
2022-08-17T20:01:58.595Z,2.25
2022-08-17T20:04:40.828Z,2.42
2022-08-17T20:07:25.783Z,1.98
2022-08-17T20:10:05.854Z,2.42
2022-08-17T20:12:40.437Z,2.42
2022-08-17T20:15:16.613Z,2.20
2022-08-17T20:17:49.255Z,2.40
2022-08-17T20:20:30.988Z,2.00
2022-08-17T20:23:08.908Z,2.38
2022-08-17T20:25:48.561Z,2.67
2022-08-17T20:28:26.331Z,2.45
2022-08-17T20:30:58.407Z,2.53
2022-08-17T20:33:34.205Z,2.95
2022-08-17T20:36:18.699Z,2.60
2022-08-17T20:38:54.818Z,3.03
2022-08-17T20:41:27.796Z,2.97
2022-08-17T20:44:08.445Z,2.70
2022-08-17T20:47:11.973Z,2.95
2022-08-17T20:49:54.558Z,2.75
2022-08-17T20:52:52.842Z,2.83
2022-08-17T20:55:56.186Z,2.60
2022-08-17T20:58:59.341Z,2.88
2022-08-17T21:01:40.723Z,3.10
2022-08-17T21:05:00.642Z,3.00
2022-08-17T21:07:46.606Z,3.15
2022-08-17T21:10:19.816Z,2.58
2022-08-17T21:12:57.543Z,2.50
2022-08-17T21:15:41.465Z,2.83
2022-08-17T21:18:20.042Z,2.72
2022-08-17T21:21:17.446Z,2.88
2022-08-17T21:24:17.435Z,3.13
2022-08-17T21:26:59.072Z,2.90
2022-08-17T21:29:34.063Z,3.67
2022-08-17T21:32:24.179Z,3.40
2022-08-17T21:35:31.405Z,3.00
2022-08-17T21:38:19.789Z,2.90
2022-08-17T21:40:53.506Z,3.35
2022-08-17T21:43:29.703Z,3.30
2022-08-17T21:46:08.192Z,3.33
2022-08-17T21:48:49.895Z,2.70
2022-08-17T21:53:48.326Z,2.80
2022-08-17T21:56:27.734Z,3.50
2022-08-17T21:59:02.109Z,3.35
2022-08-17T22:01:35.990Z,3.78
2022-08-17T22:04:28.027Z,3.30
2022-08-17T22:06:59.061Z,3.30
2022-08-17T22:09:34.362Z,3.50
2022-08-17T22:12:11.698Z,3.30
2022-08-17T22:14:52.506Z,3.50
2022-08-17T22:17:27.568Z,3.42
2022-08-17T22:20:01.086Z,3.72
2022-08-17T22:22:57.064Z,3.72
2022-08-17T22:25:31.512Z,3.45
2022-08-17T22:28:04.486Z,3.53
2022-08-17T22:30:38.407Z,3.90
2022-08-17T22:33:39.973Z,3.33
2022-08-17T22:36:32.978Z,3.35
2022-08-17T22:39:26.469Z,3.20
2022-08-17T22:42:01.358Z,3.38
2022-08-17T22:44:35.968Z,4.22
2022-08-17T22:47:23.223Z,4.00
2022-08-17T22:49:56.804Z,3.58
2022-08-17T22:52:35.463Z,4.03
2022-08-17T22:55:31.423Z,4.78
2022-08-17T22:58:21.243Z,4.25
2022-08-17T23:00:52.429Z,4.13
2022-08-17T23:03:25.050Z,4.38
2022-08-17T23:06:08.350Z,3.90
2022-08-17T23:08:50.196Z,4.78
2022-08-17T23:11:20.345Z,3.78
2022-08-17T23:14:08.668Z,4.38
2022-08-17T23:16:42.724Z,4.03
2022-08-17T23:19:13.911Z,4.60
2022-08-17T23:21:45.427Z,3.92
2022-08-17T23:24:22.026Z,4.70
2022-08-17T23:26:52.075Z,4.35
2022-08-17T23:29:24.208Z,4.07
2022-08-17T23:31:58.087Z,4.38
2022-08-17T23:34:28.553Z,4.35
2022-08-17T23:36:58.789Z,4.53
2022-08-17T23:39:28.998Z,4.53
2022-08-17T23:42:00.208Z,4.90
2022-08-17T23:44:32.980Z,4.25
2022-08-17T23:47:03.992Z,4.18
2022-08-17T23:49:34.488Z,5.18
2022-08-17T23:52:10.266Z,4.80
2022-08-17T23:54:44.672Z,4.30
2022-08-17T23:57:17.746Z,4.85
2022-08-17T23:59:49.408Z,4.47
